Terminal Aerodrome Forecast
Issued by NWS Boston, MA

Home | Current Version | Previous Version | Text Only | Print | Product List | Glossary Off
Versions: 1 2 3 4 5 6 7 8 9 10 11 12 13 14 15 16 17 18 19 20 21 22 23 24 25 26 27 28 29 30 31
000 FTUS41 KBOX 221728 TAFORH TAF KORH 221728Z 2218/2318 07004KT P6SM OVC015 FM230000 07004KT P6SM OVC008 FM230600 08005KT 5SM -SHRASN OVC008 FM230900 08006KT 2SM -RA BR OVC008=

USA.gov is the U.S. government's official web portal to all federal, state and local government web resources and services.